Time;durP1;ratioP1;P1;durP2;ratioP2;P2;SDS_P1;SDS_P2;PMS_P1;PMS_P2;Temp;Humidity;BMP_temperature;BMP_pressure;BME280_temperature;BME280_humidity;BME280_pressure;Samples;Min_cycle;Max_cycle;Signal;HPM_P1;HPM_P2
2021/03/18 00:00:54;;;;;;;;;;;4.80;45.90;;;;;;5091871;28;20031;-66
2021/03/18 00:03:24;;;;;;;7.35;2.92;;;4.60;46.10;;;;;;5091359;28;19980;-67
2021/03/18 00:05:50;;;;;;;8.65;3.30;;;4.60;46.20;;;;;;5091567;28;20032;-67
2021/03/18 00:08:16;;;;;;;;;;;4.70;46.10;;;;;;5091701;28;20082;-66
2021/03/18 00:10:43;;;;;;;5.72;2.92;;;4.70;45.90;;;;;;5091120;28;19904;-67
2021/03/18 00:13:10;;;;;;;7.85;3.03;;;4.70;46.30;;;;;;5090965;28;20635;-66
2021/03/18 00:15:37;;;;;;;6.65;2.95;;;4.70;46.40;;;;;;5091078;28;20142;-66
2021/03/18 00:18:05;;;;;;;5.53;2.97;;;4.70;45.80;;;;;;5089841;28;20028;-66
2021/03/18 00:20:31;;;;;;;6.32;3.28;;;4.60;46.30;;;;;;5090969;28;20042;-66
2021/03/18 00:22:57;;;;;;;;;;;4.70;46.40;;;;;;5091325;28;20415;-66
2021/03/18 00:25:22;;;;;;;4.80;2.38;;;4.70;47.10;;;;;;5090864;28;19908;-66
2021/03/18 00:27:48;;;;;;;7.70;2.67;;;4.70;46.10;;;;;;5090781;28;20032;-66
2021/03/18 00:30:15;;;;;;;;;;;4.70;46.00;;;;;;5091241;28;20557;-67
2021/03/18 00:32:41;;;;;;;5.13;2.80;;;4.70;46.10;;;;;;5089732;28;19931;-67
2021/03/18 00:35:09;;;;;;;6.15;3.08;;;4.70;46.80;;;;;;5090526;28;20485;-67
2021/03/18 00:37:36;;;;;;;5.40;2.65;;;4.60;46.40;;;;;;5090765;28;20047;-67
2021/03/18 00:40:11;;;;;;;5.25;2.97;;;4.70;46.20;;;;;;5090106;28;20048;-67
2021/03/18 00:42:47;;;;;;;6.57;3.10;;;4.60;46.40;;;;;;5090661;28;20036;-67
2021/03/18 00:45:13;;;;;;;6.35;2.75;;;4.70;46.20;;;;;;5090537;28;20031;-67
2021/03/18 00:47:39;;;;;;;;;;;4.70;45.70;;;;;;5091119;28;20028;-66
2021/03/18 00:50:05;;;;;;;4.63;2.70;;;4.70;45.40;;;;;;5090380;28;20383;-66
2021/03/18 00:52:31;;;;;;;6.88;2.90;;;4.70;45.80;;;;;;5090374;28;20538;-67
2021/03/18 00:54:56;;;;;;;;;;;4.60;45.90;;;;;;5090449;28;20046;-67
2021/03/18 00:57:23;;;;;;;5.53;2.63;;;4.50;46.90;;;;;;5090338;28;19907;-66
2021/03/18 00:59:48;;;;;;;5.63;2.67;;;4.40;46.70;;;;;;5090087;28;20032;-66
2021/03/18 01:02:14;;;;;;;;;;;4.40;46.50;;;;;;5090655;28;20038;-67
2021/03/18 01:04:43;;;;;;;4.95;1.95;;;4.50;46.10;;;;;;5090152;28;19955;-67
2021/03/18 01:07:08;;;;;;;5.28;2.72;;;4.50;45.80;;;;;;5089862;28;20518;-67
2021/03/18 01:09:34;;;;;;;;;;;4.50;45.70;;;;;;5090399;28;20099;-67
2021/03/18 01:11:59;;;;;;;4.40;2.45;;;4.60;46.10;;;;;;5089958;28;19923;-67
2021/03/18 01:14:25;;;;;;;5.47;2.22;;;4.60;45.20;;;;;;5089883;28;20396;-66
2021/03/18 01:16:52;;;;;;;4.65;2.25;;;4.60;45.30;;;;;;5089827;28;20042;-66
2021/03/18 01:19:21;;;;;;;4.60;2.05;;;4.50;45.50;;;;;;5089616;28;20050;-67
2021/03/18 01:21:50;;;;;;;5.53;2.80;;;4.40;45.70;;;;;;5089593;28;20464;-67
2021/03/18 01:24:16;;;;;;;4.95;2.40;;;4.40;45.40;;;;;;5089882;28;20032;-66
2021/03/18 01:26:42;;;;;;;;;;;4.50;45.40;;;;;;5088789;28;20082;-67
2021/03/18 01:29:08;;;;;;;5.57;2.40;;;4.50;45.30;;;;;;5089527;28;20320;-66
2021/03/18 01:31:34;;;;;;;6.13;2.50;;;4.60;45.00;;;;;;5089709;28;20051;-66
2021/03/18 01:34:00;;;;;;;;;;;4.60;45.20;;;;;;5090207;28;20504;-66
2021/03/18 01:36:26;;;;;;;5.90;2.33;;;4.50;45.00;;;;;;5089563;28;19912;-67
2021/03/18 01:38:53;;;;;;;6.40;3.00;;;4.50;45.10;;;;;;5089367;28;20103;-66
2021/03/18 01:41:20;;;;;;;5.90;2.58;;;4.50;45.20;;;;;;5089096;28;20064;-66
2021/03/18 01:43:45;;;;;;;7.55;2.90;;;4.50;45.10;;;;;;5089448;28;20020;-66
2021/03/18 01:46:12;;;;;;;;;;;4.50;45.10;;;;;;5089787;28;20647;-67
2021/03/18 01:48:39;;;;;;;4.90;2.80;;;4.50;45.00;;;;;;5089268;28;19908;-66
2021/03/18 01:51:05;;;;;;;4.53;2.22;;;4.40;45.30;;;;;;5089114;28;20119;-66
2021/03/18 01:53:31;;;;;;;;;;;4.30;45.50;;;;;;5090041;28;20086;-66
2021/03/18 01:55:58;;;;;;;5.13;2.70;;;4.50;45.30;;;;;;5089100;28;20345;-67
2021/03/18 01:58:25;;;;;;;6.53;2.80;;;4.50;45.00;;;;;;5089122;28;20050;-66
2021/03/18 02:00:55;;;;;;;6.63;2.53;;;4.40;45.20;;;;;;5088949;28;20378;-66
2021/03/18 02:03:21;;;;;;;5.18;2.30;;;4.50;45.90;;;;;;5088923;28;20030;-66
2021/03/18 02:05:47;;;;;;;;;;;4.50;44.90;;;;;;5088747;28;20024;-66
2021/03/18 02:08:14;;;;;;;7.03;2.35;;;4.50;45.10;;;;;;5089048;28;19958;-66
2021/03/18 02:10:41;;;;;;;5.45;2.22;;;4.50;45.40;;;;;;5088725;28;20028;-66
2021/03/18 02:13:08;;;;;;;4.72;2.05;;;4.60;44.90;;;;;;5088671;28;20179;-67
2021/03/18 02:15:42;;;;;;;4.43;2.22;;;4.60;45.00;;;;;;5088991;28;20028;-67
2021/03/18 02:18:29;;;;;;;6.07;2.88;;;4.60;44.80;;;;;;5088892;28;20024;-67
2021/03/18 02:20:57;;;;;;;9.90;2.90;;;4.60;45.00;;;;;;5088793;28;20043;-67
2021/03/18 02:24:00;;;;;;;5.85;3.05;;;4.70;44.60;;;;;;5088751;28;20078;-66
2021/03/18 02:26:38;;;;;;;4.30;2.30;;;4.60;44.30;;;;;;5088826;28;20032;-66
2021/03/18 02:29:36;;;;;;;7.03;2.75;;;4.50;44.70;;;;;;5088488;28;20587;-66
2021/03/18 02:32:20;;;;;;;4.60;2.38;;;4.60;44.70;;;;;;5088633;28;20039;-67
2021/03/18 02:35:23;;;;;;;3.85;2.17;;;4.50;44.50;;;;;;5088659;28;20507;-67
2021/03/18 02:38:09;;;;;;;4.40;2.45;;;4.60;44.30;;;;;;5088471;28;20024;-65
2021/03/18 02:40:59;;;;;;;6.17;2.50;;;4.60;44.10;;;;;;5088231;28;20084;-67
2021/03/18 02:43:28;;;;;;;5.28;2.25;;;4.50;44.60;;;;;;5088365;28;20020;-66
2021/03/18 02:45:58;;;;;;;5.35;2.78;;;4.60;44.40;;;;;;5088375;28;20032;-67
2021/03/18 02:48:31;;;;;;;8.10;2.78;;;4.60;44.00;;;;;;5088444;28;20043;-67
2021/03/18 02:50:58;;;;;;;9.98;2.78;;;4.60;44.40;;;;;;5088308;28;20024;-66
2021/03/18 02:53:26;;;;;;;5.10;2.33;;;4.70;44.20;;;;;;5088318;28;20078;-66
2021/03/18 02:55:53;;;;;;;7.10;3.00;;;4.60;44.20;;;;;;5088154;28;20024;-66
2021/03/18 02:58:22;;;;;;;5.60;2.45;;;4.50;44.50;;;;;;5088493;28;20024;-66
2021/03/18 03:00:51;;;;;;;5.45;2.60;;;4.70;44.30;;;;;;5088408;28;20044;-66
2021/03/18 03:03:19;;;;;;;4.90;2.33;;;4.60;44.30;;;;;;5086639;28;20488;-66
2021/03/18 03:05:52;;;;;;;9.65;3.72;;;4.60;44.60;;;;;;5088317;28;20068;-66
2021/03/18 03:08:18;;;;;;;8.88;3.80;;;4.50;44.70;;;;;;5088339;28;20059;-66
2021/03/18 03:10:46;;;;;;;5.35;2.67;;;4.50;45.30;;;;;;5088262;28;20040;-66
2021/03/18 03:13:12;;;;;;;6.18;2.75;;;4.60;45.10;;;;;;5088047;28;20107;-66
2021/03/18 03:15:38;;;;;;;;;;;4.40;45.50;;;;;;5088633;28;20107;-67
2021/03/18 03:18:09;;;;;;;6.25;3.13;;;4.40;45.80;;;;;;5090494;28;20007;-66
2021/03/18 03:20:36;;;;;;;7.28;3.72;;;4.40;45.90;;;;;;5092004;28;20024;-67
2021/03/18 03:23:05;;;;;;;5.97;3.10;;;4.30;45.90;;;;;;5090511;28;20129;-67
2021/03/18 03:25:34;;;;;;;7.38;3.50;;;4.30;46.20;;;;;;5092051;28;20540;-66
2021/03/18 03:28:01;;;;;;;6.88;4.05;;;4.30;46.60;;;;;;5091972;28;20495;-66
2021/03/18 03:30:27;;;;;;;10.02;3.40;;;4.30;46.30;;;;;;5092395;28;20480;-66
2021/03/18 03:32:53;;;;;;;;;;;4.20;46.80;;;;;;5092417;28;20543;-66
2021/03/18 03:35:19;;;;;;;8.05;3.88;;;4.20;47.00;;;;;;5091622;28;19996;-67
2021/03/18 03:37:45;;;;;;;8.55;3.95;;;4.20;46.90;;;;;;5091770;28;20377;-66
2021/03/18 03:40:12;;;;;;;;;;;4.10;47.50;;;;;;5091909;28;20040;-67
2021/03/18 03:42:38;;;;;;;11.70;4.40;;;4.00;47.90;;;;;;5091647;28;19911;-67
2021/03/18 03:45:07;;;;;;;12.98;4.32;;;4.00;48.20;;;;;;5091531;28;20031;-66
2021/03/18 03:47:33;;;;;;;13.13;5.95;;;4.00;48.10;;;;;;5090302;28;20089;-65
2021/03/18 03:49:58;;;;;;;;;;;4.00;48.20;;;;;;5092112;28;20020;-66
2021/03/18 03:52:29;;;;;;;8.02;3.45;;;4.00;48.40;;;;;;5091716;28;19908;-66
2021/03/18 03:55:27;;;;;;;6.78;3.40;;;3.90;48.50;;;;;;5091582;28;20020;-65
2021/03/18 03:58:06;;;;;;;11.15;4.10;;;3.90;48.80;;;;;;5091560;28;20060;-67
2021/03/18 04:00:36;;;;;;;9.85;4.20;;;3.90;48.90;;;;;;5091326;28;20027;-66
2021/03/18 04:03:05;;;;;;;9.77;4.18;;;3.80;49.30;;;;;;5091302;28;20031;-66
2021/03/18 04:05:31;;;;;;;9.18;4.43;;;3.80;49.40;;;;;;5091300;28;20059;-66
2021/03/18 04:08:02;;;;;;;8.43;4.82;;;3.80;49.50;;;;;;5090082;28;20071;-66
2021/03/18 04:10:30;;;;;;;9.15;5.55;;;3.80;49.70;;;;;;5090861;28;20086;-67
2021/03/18 04:12:57;;;;;;;9.70;5.50;;;3.70;50.50;;;;;;5091223;28;20027;-66
2021/03/18 04:15:25;;;;;;;10.65;5.47;;;3.80;50.00;;;;;;5091144;28;20611;-66
2021/03/18 04:17:53;;;;;;;9.00;4.78;;;3.80;50.00;;;;;;5090994;28;20103;-67
2021/03/18 04:20:22;;;;;;;11.73;5.70;;;3.70;50.20;;;;;;5090828;28;20031;-65
2021/03/18 04:22:52;;;;;;;9.45;4.50;;;3.70;50.20;;;;;;5090999;28;20020;-66
2021/03/18 04:25:20;;;;;;;7.35;4.22;;;3.80;50.20;;;;;;5090707;28;20035;-67
2021/03/18 04:27:47;;;;;;;6.82;4.15;;;3.70;50.30;;;;;;5090930;28;20051;-67
2021/03/18 04:30:14;;;;;;;9.07;4.40;;;3.60;50.80;;;;;;5090190;28;20475;-66
2021/03/18 04:32:42;;;;;;;8.05;4.28;;;3.50;50.80;;;;;;5090771;28;20058;-67
2021/03/18 04:35:10;;;;;;;7.43;3.97;;;3.60;50.80;;;;;;5090653;28;20042;-66
2021/03/18 04:37:37;;;;;;;10.32;3.88;;;3.70;50.30;;;;;;5090768;28;20612;-65
2021/03/18 04:40:06;;;;;;;8.95;4.43;;;3.70;51.00;;;;;;5090468;28;20546;-67
2021/03/18 04:42:33;;;;;;;7.65;3.90;;;3.70;50.70;;;;;;5090510;28;20032;-67
2021/03/18 04:45:00;;;;;;;8.88;4.40;;;3.70;50.90;;;;;;5089010;28;20039;-66
2021/03/18 04:47:26;;;;;;;10.90;4.68;;;3.80;51.00;;;;;;5089222;28;20510;-66
2021/03/18 04:49:53;;;;;;;11.63;5.15;;;3.80;51.10;;;;;;5090451;28;20109;-66
2021/03/18 04:52:20;;;;;;;11.57;5.30;;;3.80;51.00;;;;;;5090553;28;20039;-67
2021/03/18 04:54:46;;;;;;;9.20;4.55;;;3.80;51.10;;;;;;5090342;28;20066;-66
2021/03/18 04:57:16;;;;;;;10.77;5.57;;;3.80;51.20;;;;;;5088636;28;20476;-66
2021/03/18 04:59:43;;;;;;;9.48;5.00;;;3.70;51.70;;;;;;5088811;28;20427;-66
2021/03/18 05:02:09;;;;;;;10.82;5.45;;;3.70;51.80;;;;;;5090074;28;20036;-66
2021/03/18 05:04:36;;;;;;;9.68;5.13;;;3.60;52.20;;;;;;5088841;28;20024;-67
2021/03/18 05:07:02;;;;;;;8.27;4.22;;;3.60;52.40;;;;;;5089968;28;20063;-66
2021/03/18 05:09:28;;;;;;;;;;;3.80;52.20;;;;;;5090448;28;20091;-66
2021/03/18 05:11:55;;;;;;;11.60;5.65;;;3.90;52.10;;;;;;5090039;28;20396;-66
2021/03/18 05:14:23;;;;;;;14.20;5.30;;;3.80;52.10;;;;;;5088700;28;20043;-66
2021/03/18 05:16:51;;;;;;;8.60;4.57;;;3.80;52.70;;;;;;5089991;28;20047;-66
2021/03/18 05:19:18;;;;;;;8.27;4.53;;;3.90;52.50;;;;;;5089722;28;20043;-66
2021/03/18 05:21:46;;;;;;;10.90;5.40;;;3.90;52.20;;;;;;5088433;28;20065;-67
2021/03/18 05:24:13;;;;;;;11.00;5.70;;;3.80;52.50;;;;;;5089938;28;20028;-67
2021/03/18 05:26:43;;;;;;;16.60;6.55;;;3.80;52.70;;;;;;5089632;28;20036;-67
2021/03/18 05:29:10;;;;;;;9.88;5.18;;;3.90;53.20;;;;;;5089244;28;20036;-66
2021/03/18 05:31:36;;;;;;;7.38;4.38;;;4.00;52.50;;;;;;5084048;28;20023;-65
2021/03/18 05:34:02;;;;;;;;;;;4.10;52.40;;;;;;5089809;28;20044;-66
2021/03/18 05:36:28;;;;;;;7.85;3.65;;;4.10;52.30;;;;;;5088678;28;19908;-67
2021/03/18 05:38:54;;;;;;;;;;;4.20;52.60;;;;;;5089026;28;20449;-67
2021/03/18 05:41:20;;;;;;;10.55;5.53;;;4.40;52.10;;;;;;5085845;28;19920;-67
2021/03/18 05:43:46;;;;;;;;;;;4.50;52.00;;;;;;5088768;28;20106;-66
2021/03/18 05:46:16;;;;;;;11.63;4.35;;;4.70;51.30;;;;;;5088785;28;20008;-66
2021/03/18 05:48:45;;;;;;;8.35;4.18;;;4.70;51.40;;;;;;5088378;28;20024;-67
2021/03/18 05:51:17;;;;;;;8.68;4.38;;;5.00;50.10;;;;;;5086903;28;20808;-67
2021/03/18 05:53:47;;;;;;;8.57;4.80;;;5.00;50.50;;;;;;5088456;28;20062;-66
2021/03/18 05:56:17;;;;;;;9.55;4.70;;;4.90;50.40;;;;;;5088190;28;20085;-67
2021/03/18 05:58:45;;;;;;;9.02;4.75;;;5.00;50.60;;;;;;5088256;28;20028;-66
2021/03/18 06:01:12;;;;;;;8.30;4.43;;;5.10;50.80;;;;;;5088681;28;20071;-66
2021/03/18 06:03:38;;;;;;;8.45;4.15;;;5.30;50.30;;;;;;5089195;28;20039;-67
2021/03/18 06:06:06;;;;;;;7.97;4.20;;;5.50;49.90;;;;;;5085923;28;20420;-67
2021/03/18 06:08:36;;;;;;;8.95;5.10;;;5.60;49.90;;;;;;5072662;28;20085;-67
2021/03/18 06:11:03;;;;;;;9.00;4.70;;;5.90;49.00;;;;;;5071136;28;20100;-67
2021/03/18 06:13:29;;;;;;;12.60;5.00;;;6.00;48.60;;;;;;5067299;28;20408;-66
2021/03/18 06:15:56;;;;;;;8.70;5.30;;;6.10;47.60;;;;;;5068652;28;20020;-66
2021/03/18 06:18:22;;;;;;;8.75;3.95;;;6.20;48.00;;;;;;5067359;28;20059;-66
2021/03/18 06:20:52;;;;;;;7.80;4.25;;;6.50;47.20;;;;;;5068557;28;20037;-67
2021/03/18 06:23:18;;;;;;;7.47;3.97;;;6.40;46.60;;;;;;5068313;28;20485;-67
2021/03/18 06:25:45;;;;;;;8.25;4.53;;;6.20;48.10;;;;;;5068583;28;20040;-67
2021/03/18 06:28:28;;;;;;;7.82;4.45;;;6.30;47.60;;;;;;5068486;28;20397;-66
2021/03/18 06:31:16;;;;;;;11.57;5.40;;;6.30;47.70;;;;;;5068608;28;20077;-66
2021/03/18 06:33:44;;;;;;;10.93;4.38;;;6.40;47.20;;;;;;5068363;28;20024;-67
2021/03/18 06:36:30;;;;;;;6.93;4.53;;;6.50;47.40;;;;;;5067147;28;20033;-66
2021/03/18 06:39:09;;;;;;;6.85;3.75;;;6.60;46.90;;;;;;5068411;28;20032;-66
2021/03/18 06:41:47;;;;;;;11.52;4.88;;;6.40;46.80;;;;;;5066871;28;20509;-67
2021/03/18 06:44:29;;;;;;;7.45;4.10;;;6.20;48.00;;;;;;5066954;28;20027;-67
2021/03/18 06:47:05;;;;;;;10.25;4.30;;;6.20;48.10;;;;;;5068314;28;20028;-66
2021/03/18 06:49:30;;;;;;;8.27;4.00;;;6.40;47.90;;;;;;5066892;28;20527;-67
2021/03/18 06:52:08;;;;;;;10.02;5.55;;;6.50;47.40;;;;;;5068042;28;20028;-67
2021/03/18 06:54:39;;;;;;;7.65;4.18;;;7.10;46.00;;;;;;5068149;28;20050;-67
2021/03/18 06:57:05;;;;;;;7.47;4.65;;;7.70;45.70;;;;;;5068121;28;20135;-67
2021/03/18 06:59:40;;;;;;;8.68;3.97;;;8.60;42.60;;;;;;5068117;28;20024;-67
2021/03/18 07:02:14;;;;;;;7.47;4.57;;;9.40;40.50;;;;;;5068219;28;20142;-67
2021/03/18 07:04:43;;;;;;;6.80;4.28;;;9.90;37.70;;;;;;5068096;28;20028;-67
2021/03/18 07:07:10;;;;;;;6.82;3.70;;;10.10;37.60;;;;;;5067824;28;20855;-67
2021/03/18 07:09:37;;;;;;;7.40;4.05;;;10.60;35.70;;;;;;5068020;28;20077;-67
2021/03/18 07:12:08;;;;;;;6.53;3.97;;;10.70;36.30;;;;;;5067980;28;20044;-67
2021/03/18 07:14:39;;;;;;;9.27;3.35;;;11.00;35.30;;;;;;5067970;28;20108;-66
2021/03/18 07:17:05;;;;;;;7.63;3.72;;;11.00;34.30;;;;;;5067856;28;20542;-67
2021/03/18 07:19:32;;;;;;;6.13;3.28;;;10.90;34.20;;;;;;5067904;28;20120;-65
2021/03/18 07:21:59;;;;;;;8.90;3.80;;;9.80;35.70;;;;;;5067806;28;20043;-67
2021/03/18 07:24:24;;;;;;;6.20;3.63;;;9.30;37.50;;;;;;5066766;28;20184;-68
2021/03/18 07:26:50;;;;;;;;;;;9.20;37.40;;;;;;5068393;28;20128;-67
2021/03/18 07:29:22;;;;;;;7.80;4.50;;;8.90;38.00;;;;;;5067803;28;19938;-67
2021/03/18 07:31:49;;;;;;;6.60;3.92;;;8.80;38.20;;;;;;5067510;28;20062;-66
2021/03/18 07:34:15;;;;;;;6.88;3.58;;;8.50;38.80;;;;;;5067946;28;20086;-67
2021/03/18 07:36:41;;;;;;;7.53;4.22;;;8.40;39.50;;;;;;5067845;28;20044;-67
2021/03/18 07:39:08;;;;;;;;;;;8.50;39.40;;;;;;5068013;28;20064;-66
2021/03/18 07:41:34;;;;;;;6.07;3.15;;;8.60;38.90;;;;;;5067790;28;19920;-66
2021/03/18 07:44:01;;;;;;;4.93;3.28;;;8.50;39.50;;;;;;5067764;28;20052;-67
2021/03/18 07:46:29;;;;;;;7.22;3.67;;;8.00;39.30;;;;;;5067580;28;20094;-67
2021/03/18 07:48:59;;;;;;;5.13;3.03;;;7.90;39.50;;;;;;5067656;28;20038;-67
2021/03/18 07:51:27;;;;;;;7.22;2.97;;;7.90;40.00;;;;;;5067834;28;20052;-66
2021/03/18 07:53:56;;;;;;;5.43;3.03;;;8.00;39.60;;;;;;5066370;28;20381;-67
2021/03/18 07:56:22;;;;;;;13.68;5.93;;;7.90;39.60;;;;;;5067665;28;20033;-66
2021/03/18 07:58:48;;;;;;;;;;;8.00;40.30;;;;;;5068024;28;20028;-66
2021/03/18 08:01:32;;;;;;;4.83;2.87;;;7.90;39.50;;;;;;5067398;28;19913;-66
2021/03/18 08:04:05;;;;;;;6.38;3.95;;;8.00;39.80;;;;;;5067909;28;20032;-66
2021/03/18 08:06:39;;;;;;;7.13;4.00;;;8.00;39.80;;;;;;5071010;28;20105;-66
2021/03/18 08:09:16;;;;;;;7.95;3.90;;;7.90;39.70;;;;;;5070903;28;20025;-66
2021/03/18 08:11:45;;;;;;;5.97;3.15;;;7.70;40.10;;;;;;5071018;28;20028;-67
2021/03/18 08:14:13;;;;;;;6.72;3.50;;;7.60;39.80;;;;;;5070990;28;20484;-66
2021/03/18 08:16:39;;;;;;;7.22;3.67;;;7.50;39.90;;;;;;5069635;28;20028;-67
2021/03/18 08:19:13;;;;;;;7.60;3.33;;;7.30;41.10;;;;;;5070651;28;20028;-67
2021/03/18 08:21:44;;;;;;;3.65;2.55;;;7.20;40.50;;;;;;5070870;28;20151;-66
2021/03/18 08:24:20;;;;;;;5.60;3.17;;;7.20;41.00;;;;;;5070791;28;20024;-65
2021/03/18 08:27:01;;;;;;;5.93;2.92;;;7.50;40.90;;;;;;5070830;28;20047;-67
2021/03/18 08:29:39;;;;;;;5.43;2.95;;;7.60;41.00;;;;;;5070705;28;20058;-67
2021/03/18 08:32:09;;;;;;;7.80;3.78;;;7.70;40.30;;;;;;5070655;28;20035;-67
2021/03/18 08:34:46;;;;;;;5.20;3.25;;;7.70;40.60;;;;;;5069157;28;20032;-66
2021/03/18 08:37:13;;;;;;;7.40;3.90;;;7.90;40.10;;;;;;5070560;28;20043;-67
2021/03/18 08:39:48;;;;;;;8.00;3.90;;;7.80;40.00;;;;;;5069008;28;20102;-65
2021/03/18 08:42:30;;;;;;;8.32;3.90;;;7.80;39.50;;;;;;5069054;28;20101;-67
2021/03/18 08:44:58;;;;;;;6.72;3.85;;;7.60;40.10;;;;;;5069349;28;20036;-67
2021/03/18 08:47:43;;;;;;;9.00;5.00;;;7.60;40.50;;;;;;5070265;28;20020;-67
2021/03/18 08:50:33;;;;;;;8.27;3.75;;;7.50;40.60;;;;;;5070298;28;20070;-67
2021/03/18 08:53:00;;;;;;;5.78;3.08;;;7.60;40.10;;;;;;5054732;28;20056;-67
2021/03/18 08:55:36;;;;;;;5.28;3.10;;;7.80;39.30;;;;;;5068784;28;20488;-67
2021/03/18 08:58:03;;;;;;;6.50;3.42;;;7.60;39.20;;;;;;5070128;28;20101;-67
2021/03/18 09:00:30;;;;;;;5.78;3.22;;;7.60;39.60;;;;;;5070025;28;20583;-67
2021/03/18 09:02:56;;;;;;;5.32;2.58;;;7.60;38.90;;;;;;5070139;28;20057;-66
2021/03/18 09:05:22;;;;;;;;;;;7.50;38.90;;;;;;5069120;28;20016;-65
2021/03/18 09:08:19;;;;;;;6.00;3.00;;;7.30;38.90;;;;;;5069823;28;19912;-66
2021/03/18 09:10:45;;;;;;;12.18;8.02;;;7.10;39.90;;;;;;5068103;28;20033;-67
2021/03/18 09:13:20;;;;;;;7.45;4.05;;;7.10;40.40;;;;;;5069733;28;20042;-67
2021/03/18 09:15:48;;;;;;;8.93;6.65;;;6.90;41.20;;;;;;5069789;28;20524;-67
2021/03/18 09:18:29;;;;;;;5.68;2.90;;;7.00;40.70;;;;;;5069773;28;20060;-67
2021/03/18 09:21:08;;;;;;;5.00;2.40;;;7.10;40.80;;;;;;5069864;28;20052;-67
2021/03/18 09:23:39;;;;;;;14.05;6.65;;;7.40;39.50;;;;;;5069810;28;20059;-66
2021/03/18 09:26:09;;;;;;;7.63;3.97;;;7.30;39.70;;;;;;5069637;28;20405;-66
2021/03/18 09:28:39;;;;;;;6.70;3.22;;;7.10;39.80;;;;;;5069688;28;20215;-67
2021/03/18 09:31:06;;;;;;;7.68;3.92;;;7.10;40.40;;;;;;5069511;28;20033;-66
2021/03/18 09:33:37;;;;;;;12.02;4.18;;;7.20;40.50;;;;;;5069565;28;20754;-67
2021/03/18 09:36:18;;;;;;;4.93;3.08;;;7.40;40.30;;;;;;5069281;28;20017;-67
2021/03/18 09:39:14;;;;;;;6.65;2.40;;;7.60;40.00;;;;;;5070216;28;20029;-67
2021/03/18 09:41:51;;;;;;;6.93;3.22;;;7.80;39.70;;;;;;5051684;28;20045;-68
2021/03/18 09:44:22;;;;;;;9.43;4.13;;;8.00;39.40;;;;;;5079772;28;20628;-67
2021/03/18 09:47:06;;;;;;;5.38;3.25;;;8.00;39.20;;;;;;5073809;28;20169;-67
2021/03/18 09:49:38;;;;;;;6.88;3.15;;;8.10;39.60;;;;;;5068941;28;20550;-67
2021/03/18 09:52:07;;;;;;;5.28;2.90;;;8.30;39.30;;;;;;5068873;28;20058;-66
2021/03/18 09:54:34;;;;;;;6.25;3.17;;;8.40;39.00;;;;;;5068861;28;20104;-66
2021/03/18 09:57:02;;;;;;;5.53;3.35;;;8.50;39.00;;;;;;5068992;28;20546;-66
2021/03/18 09:59:28;;;;;;;4.63;2.42;;;8.60;38.20;;;;;;5076249;28;20504;-66
2021/03/18 10:01:53;;;;;;;;;;;8.70;38.10;;;;;;5086259;28;20075;-67
2021/03/18 10:04:20;;;;;;;5.78;2.88;;;8.80;38.00;;;;;;5089143;28;20352;-68
2021/03/18 10:06:51;;;;;;;5.68;2.72;;;8.90;37.10;;;;;;5089376;28;20028;-67
2021/03/18 10:09:41;;;;;;;10.48;4.40;;;8.90;36.60;;;;;;5088838;28;20073;-66
2021/03/18 10:12:10;;;;;;;4.07;2.50;;;8.90;36.20;;;;;;5085656;28;20833;-67
2021/03/18 10:15:05;;;;;;;5.18;2.20;;;8.90;35.80;;;;;;5078124;28;20039;-67
2021/03/18 10:17:41;;;;;;;5.70;3.38;;;9.10;35.80;;;;;;5076061;28;20028;-67
2021/03/18 10:20:29;;;;;;;8.20;3.35;;;9.20;35.40;;;;;;5076846;28;20063;-67
2021/03/18 10:23:09;;;;;;;4.82;2.83;;;9.40;34.40;;;;;;5077873;28;20032;-67
2021/03/18 10:25:37;;;;;;;5.75;3.17;;;9.40;34.00;;;;;;5073541;28;20012;-66
2021/03/18 10:28:11;;;;;;;6.22;2.83;;;9.40;34.80;;;;;;5067924;28;20036;-66
2021/03/18 10:30:44;;;;;;;4.90;2.53;;;9.80;33.60;;;;;;5068450;28;20028;-66
2021/03/18 10:33:15;;;;;;;4.07;2.67;;;9.90;32.80;;;;;;5083043;28;20107;-67
2021/03/18 10:36:02;;;;;;;5.07;2.53;;;10.00;33.20;;;;;;5076337;28;20028;-67
2021/03/18 10:38:32;;;;;;;4.68;2.95;;;10.30;33.00;;;;;;5076729;28;20029;-68
2021/03/18 10:41:03;;;;;;;6.15;2.97;;;10.40;31.90;;;;;;5075798;28;20048;-68
2021/03/18 10:43:31;;;;;;;4.60;2.63;;;10.20;32.20;;;;;;5076982;28;20029;-67
2021/03/18 10:46:02;;;;;;;4.43;2.63;;;10.30;33.30;;;;;;5082257;28;20032;-67
2021/03/18 10:48:31;;;;;;;4.72;3.22;;;10.60;33.70;;;;;;5088477;28;20020;-67
2021/03/18 10:51:06;;;;;;;6.10;3.38;;;10.90;32.60;;;;;;5087011;28;20043;-67
2021/03/18 10:53:36;;;;;;;3.92;2.53;;;11.00;32.00;;;;;;5088143;28;20032;-68
2021/03/18 10:56:05;;;;;;;4.63;2.30;;;10.80;30.80;;;;;;5088296;28;20534;-67
2021/03/18 10:58:31;;;;;;;5.00;2.72;;;11.00;31.60;;;;;;5088501;28;20226;-68
2021/03/18 11:01:05;;;;;;;5.35;2.95;;;11.20;31.80;;;;;;5088203;28;20040;-67
2021/03/18 11:03:40;;;;;;;4.38;2.78;;;11.40;31.30;;;;;;5088464;28;20024;-67
2021/03/18 11:06:24;;;;;;;5.57;3.38;;;11.30;30.80;;;;;;5088322;28;20036;-67
2021/03/18 11:08:54;;;;;;;10.13;4.38;;;11.50;30.20;;;;;;5087693;28;20036;-67
2021/03/18 11:11:25;;;;;;;9.45;2.60;;;11.00;30.00;;;;;;5087224;28;20069;-66
2021/03/18 11:14:05;;;;;;;5.90;3.08;;;10.70;31.00;;;;;;5083869;28;20055;-67
2021/03/18 11:16:31;;;;;;;5.43;2.85;;;10.50;30.60;;;;;;5071511;28;20039;-67
2021/03/18 11:18:57;;;;;;;;;;;10.70;30.50;;;;;;5077446;28;20385;-66
2021/03/18 11:21:34;;;;;;;3.97;2.22;;;10.40;30.30;;;;;;5082809;28;20484;-67
2021/03/18 11:24:16;;;;;;;4.65;2.35;;;10.10;31.00;;;;;;5086571;28;20040;-67
2021/03/18 11:27:03;;;;;;;9.73;4.13;;;9.90;31.00;;;;;;5087178;28;20036;-67
2021/03/18 11:29:30;;;;;;;;;;;9.70;31.60;;;;;;5083376;28;20040;-67
2021/03/18 11:31:59;;;;;;;6.45;4.20;;;9.90;31.70;;;;;;5087225;28;19927;-67
2021/03/18 11:34:31;;;;;;;77.65;41.92;;;9.60;31.40;;;;;;5087327;28;20088;-66
2021/03/18 11:37:08;;;;;;;106.10;65.75;;;9.70;31.30;;;;;;5086912;28;20036;-66
2021/03/18 11:39:34;;;;;;;39.13;29.60;;;9.60;31.70;;;;;;5088265;28;20044;-67
2021/03/18 11:42:01;;;;;;;;;;;9.60;31.40;;;;;;5087982;28;20446;-67
2021/03/18 11:44:29;;;;;;;5.53;2.30;;;9.70;31.80;;;;;;5088750;28;20006;-66
2021/03/18 11:47:09;;;;;;;4.13;2.08;;;9.40;31.80;;;;;;5088772;28;20036;-66
2021/03/18 11:49:36;;;;;;;5.45;2.92;;;9.40;31.60;;;;;;5089859;28;20562;-66
2021/03/18 11:52:04;;;;;;;4.20;2.55;;;9.10;32.80;;;;;;5090415;28;20534;-66
2021/03/18 11:54:30;;;;;;;5.93;2.58;;;9.20;32.40;;;;;;5090169;28;20029;-67
2021/03/18 11:56:57;;;;;;;6.47;3.55;;;9.00;32.60;;;;;;5089312;28;20559;-66
2021/03/18 11:59:23;;;;;;;5.55;2.63;;;8.90;33.40;;;;;;5089437;28;20051;-65
2021/03/18 12:01:49;;;;;;;;;;;9.00;32.90;;;;;;5088225;28;20032;-66
2021/03/18 12:04:15;;;;;;;7.07;3.42;;;8.80;32.30;;;;;;5089381;28;19960;-66
2021/03/18 12:06:40;;;;;;;;;;;8.80;33.10;;;;;;5091313;28;20047;-68
2021/03/18 12:09:06;;;;;;;10.27;5.35;;;8.80;32.80;;;;;;5090164;28;19924;-66
2021/03/18 12:11:33;;;;;;;;;;;8.70;33.40;;;;;;5090317;28;20071;-66
2021/03/18 12:13:59;;;;;;;22.77;10.77;;;8.70;33.80;;;;;;5088498;28;20283;-66
2021/03/18 12:16:25;;;;;;;;;;;8.70;33.90;;;;;;5089904;28;20044;-66
2021/03/18 12:18:50;;;;;;;4.47;2.67;;;8.80;34.10;;;;;;5088129;28;19969;-67
2021/03/18 12:21:16;;;;;;;4.07;2.30;;;8.70;35.10;;;;;;5082205;28;20487;-67
2021/03/18 12:23:42;;;;;;;;;;;8.70;34.20;;;;;;5071905;28;20084;-67
2021/03/18 12:26:07;;;;;;;6.30;3.45;;;8.70;33.80;;;;;;5069230;28;19916;-67
2021/03/18 12:28:33;;;;;;;10.60;4.13;;;8.60;34.20;;;;;;5070726;28;20431;-66
2021/03/18 12:30:58;;;;;;;;;;;8.70;34.60;;;;;;5071058;28;20828;-67
2021/03/18 12:33:24;;;;;;;6.97;2.63;;;8.80;34.30;;;;;;5070768;28;20292;-68
2021/03/18 12:35:51;;;;;;;6.03;3.05;;;8.80;33.70;;;;;;5069694;28;20062;-67
2021/03/18 12:38:20;;;;;;;5.50;2.63;;;8.90;34.00;;;;;;5066761;28;20041;-67
2021/03/18 12:40:47;;;;;;;4.60;2.80;;;9.00;33.70;;;;;;5069500;28;20048;-67
2021/03/18 12:43:12;;;;;;;3.70;2.30;;;9.10;33.80;;;;;;5069575;28;20481;-67
2021/03/18 12:45:39;;;;;;;;;;;9.20;32.80;;;;;;5069952;28;20062;-67
2021/03/18 12:48:06;;;;;;;6.43;2.00;;;9.40;32.70;;;;;;5069393;28;19952;-66
2021/03/18 12:50:33;;;;;;;4.78;2.03;;;9.60;31.60;;;;;;5068205;28;20040;-67
2021/03/18 12:52:58;;;;;;;6.93;2.80;;;9.50;31.10;;;;;;5069170;28;20040;-66
2021/03/18 12:55:24;;;;;;;;;;;9.40;30.90;;;;;;5069553;28;20052;-67
2021/03/18 12:57:51;;;;;;;4.60;2.05;;;9.50;31.10;;;;;;5075999;28;19922;-67
2021/03/18 13:00:19;;;;;;;3.78;1.60;;;9.60;30.40;;;;;;5076737;28;20441;-67
2021/03/18 13:02:45;;;;;;;5.68;2.25;;;9.50;30.20;;;;;;5071280;28;20567;-67
2021/03/18 13:05:11;;;;;;;;;;;9.60;30.50;;;;;;5086341;28;20032;-67
2021/03/18 13:07:37;;;;;;;3.67;1.92;;;9.60;30.30;;;;;;5084534;28;19941;-67
2021/03/18 13:10:03;;;;;;;;;;;9.60;30.40;;;;;;5089277;28;20086;-67
2021/03/18 13:12:29;;;;;;;7.57;3.63;;;9.70;30.00;;;;;;5089151;28;19958;-66
2021/03/18 13:14:55;;;;;;;6.43;3.97;;;9.70;30.30;;;;;;5088868;28;20055;-67
2021/03/18 13:17:20;;;;;;;;;;;9.70;30.40;;;;;;5088871;28;20040;-67
2021/03/18 13:19:46;;;;;;;4.03;1.85;;;9.70;30.70;;;;;;5107167;28;19915;-67